sensor_id;sensor_type;location;lat;lon;timestamp;P1;durP1;ratioP1;P2;durP2;ratioP2
10050;SDS011;5065;46.942;7.432;2023-04-06T00:01:26;7.03;;;5.93;;
10050;SDS011;5065;46.942;7.432;2023-04-06T00:03:53;9.17;;;6.90;;
10050;SDS011;5065;46.942;7.432;2023-04-06T00:06:20;8.10;;;6.73;;
10050;SDS011;5065;46.942;7.432;2023-04-06T00:08:49;14.83;;;6.80;;
10050;SDS011;5065;46.942;7.432;2023-04-06T00:11:18;8.20;;;6.53;;
10050;SDS011;5065;46.942;7.432;2023-04-06T00:13:45;7.87;;;6.60;;
10050;SDS011;5065;46.942;7.432;2023-04-06T00:16:12;8.33;;;6.37;;
10050;SDS011;5065;46.942;7.432;2023-04-06T00:18:39;9.53;;;6.27;;
10050;SDS011;5065;46.942;7.432;2023-04-06T00:21:07;7.60;;;6.27;;
10050;SDS011;5065;46.942;7.432;2023-04-06T00:23:38;10.23;;;6.70;;
10050;SDS011;5065;46.942;7.432;2023-04-06T00:26:07;8.00;;;6.47;;
10050;SDS011;5065;46.942;7.432;2023-04-06T00:28:35;12.53;;;7.87;;
10050;SDS011;5065;46.942;7.432;2023-04-06T00:31:03;8.77;;;6.70;;
10050;SDS011;5065;46.942;7.432;2023-04-06T00:33:30;8.00;;;7.10;;
10050;SDS011;5065;46.942;7.432;2023-04-06T00:35:57;9.57;;;7.63;;
10050;SDS011;5065;46.942;7.432;2023-04-06T00:38:24;10.53;;;7.40;;
10050;SDS011;5065;46.942;7.432;2023-04-06T00:40:52;8.67;;;7.77;;
10050;SDS011;5065;46.942;7.432;2023-04-06T00:43:20;9.27;;;7.03;;
10050;SDS011;5065;46.942;7.432;2023-04-06T00:45:47;10.00;;;7.13;;
10050;SDS011;5065;46.942;7.432;2023-04-06T00:48:14;7.87;;;7.03;;
10050;SDS011;5065;46.942;7.432;2023-04-06T00:50:42;11.33;;;7.20;;
10050;SDS011;5065;46.942;7.432;2023-04-06T00:53:10;10.67;;;7.67;;
10050;SDS011;5065;46.942;7.432;2023-04-06T00:55:38;9.63;;;7.27;;
10050;SDS011;5065;46.942;7.432;2023-04-06T00:58:05;8.90;;;6.70;;
10050;SDS011;5065;46.942;7.432;2023-04-06T01:00:34;9.93;;;7.10;;
10050;SDS011;5065;46.942;7.432;2023-04-06T01:03:01;8.60;;;6.80;;
10050;SDS011;5065;46.942;7.432;2023-04-06T01:05:32;10.87;;;8.30;;
10050;SDS011;5065;46.942;7.432;2023-04-06T01:08:00;9.57;;;7.20;;
10050;SDS011;5065;46.942;7.432;2023-04-06T01:10:27;10.77;;;7.40;;
10050;SDS011;5065;46.942;7.432;2023-04-06T01:12:55;10.33;;;7.40;;
10050;SDS011;5065;46.942;7.432;2023-04-06T01:15:22;11.70;;;7.33;;
10050;SDS011;5065;46.942;7.432;2023-04-06T01:17:52;9.10;;;7.57;;
10050;SDS011;5065;46.942;7.432;2023-04-06T01:20:19;9.77;;;7.27;;
10050;SDS011;5065;46.942;7.432;2023-04-06T01:22:48;8.80;;;7.00;;
10050;SDS011;5065;46.942;7.432;2023-04-06T01:25:15;9.50;;;7.60;;
10050;SDS011;5065;46.942;7.432;2023-04-06T01:27:43;9.33;;;6.97;;
10050;SDS011;5065;46.942;7.432;2023-04-06T01:30:10;8.43;;;7.47;;
10050;SDS011;5065;46.942;7.432;2023-04-06T01:32:38;11.17;;;7.93;;
10050;SDS011;5065;46.942;7.432;2023-04-06T01:35:05;9.07;;;6.97;;
10050;SDS011;5065;46.942;7.432;2023-04-06T01:37:33;11.30;;;8.00;;
10050;SDS011;5065;46.942;7.432;2023-04-06T01:40:02;8.50;;;6.67;;
10050;SDS011;5065;46.942;7.432;2023-04-06T01:42:29;11.33;;;7.70;;
10050;SDS011;5065;46.942;7.432;2023-04-06T01:44:57;11.13;;;7.37;;
10050;SDS011;5065;46.942;7.432;2023-04-06T01:47:24;10.30;;;7.20;;
10050;SDS011;5065;46.942;7.432;2023-04-06T01:49:51;10.00;;;7.20;;
10050;SDS011;5065;46.942;7.432;2023-04-06T01:52:18;8.10;;;6.60;;
10050;SDS011;5065;46.942;7.432;2023-04-06T01:54:46;8.60;;;7.17;;
10050;SDS011;5065;46.942;7.432;2023-04-06T01:57:14;7.33;;;6.30;;
10050;SDS011;5065;46.942;7.432;2023-04-06T01:59:41;10.77;;;7.10;;
10050;SDS011;5065;46.942;7.432;2023-04-06T02:02:09;8.60;;;7.77;;
10050;SDS011;5065;46.942;7.432;2023-04-06T02:04:37;11.43;;;7.17;;
10050;SDS011;5065;46.942;7.432;2023-04-06T02:07:05;10.93;;;7.20;;
10050;SDS011;5065;46.942;7.432;2023-04-06T02:09:32;9.20;;;6.70;;
10050;SDS011;5065;46.942;7.432;2023-04-06T02:11:59;11.43;;;8.73;;
10050;SDS011;5065;46.942;7.432;2023-04-06T02:14:28;8.47;;;7.03;;
10050;SDS011;5065;46.942;7.432;2023-04-06T02:16:56;9.23;;;7.60;;
10050;SDS011;5065;46.942;7.432;2023-04-06T02:19:23;10.23;;;7.60;;
10050;SDS011;5065;46.942;7.432;2023-04-06T02:21:50;8.73;;;6.93;;
10050;SDS011;5065;46.942;7.432;2023-04-06T02:24:17;10.53;;;7.90;;
10050;SDS011;5065;46.942;7.432;2023-04-06T02:26:45;7.93;;;7.13;;
10050;SDS011;5065;46.942;7.432;2023-04-06T02:29:12;9.93;;;7.20;;
10050;SDS011;5065;46.942;7.432;2023-04-06T02:31:40;9.77;;;7.67;;
10050;SDS011;5065;46.942;7.432;2023-04-06T02:34:07;9.77;;;7.37;;
10050;SDS011;5065;46.942;7.432;2023-04-06T02:36:37;9.57;;;7.23;;
10050;SDS011;5065;46.942;7.432;2023-04-06T02:39:04;8.33;;;6.97;;
10050;SDS011;5065;46.942;7.432;2023-04-06T02:41:31;8.40;;;6.70;;
10050;SDS011;5065;46.942;7.432;2023-04-06T02:43:58;16.63;;;6.67;;
10050;SDS011;5065;46.942;7.432;2023-04-06T02:46:25;7.73;;;6.70;;
10050;SDS011;5065;46.942;7.432;2023-04-06T02:48:54;8.00;;;6.83;;
10050;SDS011;5065;46.942;7.432;2023-04-06T02:51:21;10.97;;;6.63;;
10050;SDS011;5065;46.942;7.432;2023-04-06T02:53:50;10.60;;;7.53;;
10050;SDS011;5065;46.942;7.432;2023-04-06T02:56:17;8.37;;;7.03;;
10050;SDS011;5065;46.942;7.432;2023-04-06T02:58:46;9.73;;;7.40;;
10050;SDS011;5065;46.942;7.432;2023-04-06T03:01:13;10.17;;;7.00;;
10050;SDS011;5065;46.942;7.432;2023-04-06T03:03:40;13.57;;;7.53;;
10050;SDS011;5065;46.942;7.432;2023-04-06T03:06:09;9.40;;;7.37;;
10050;SDS011;5065;46.942;7.432;2023-04-06T03:08:36;12.27;;;7.83;;
10050;SDS011;5065;46.942;7.432;2023-04-06T03:11:03;11.70;;;6.90;;
10050;SDS011;5065;46.942;7.432;2023-04-06T03:13:31;7.87;;;6.30;;
10050;SDS011;5065;46.942;7.432;2023-04-06T03:15:58;8.77;;;7.37;;
10050;SDS011;5065;46.942;7.432;2023-04-06T03:18:25;11.13;;;7.03;;
10050;SDS011;5065;46.942;7.432;2023-04-06T03:20:52;9.67;;;6.43;;
10050;SDS011;5065;46.942;7.432;2023-04-06T03:23:21;8.63;;;6.30;;
10050;SDS011;5065;46.942;7.432;2023-04-06T03:25:49;8.13;;;6.87;;
10050;SDS011;5065;46.942;7.432;2023-04-06T03:28:16;8.70;;;6.77;;
10050;SDS011;5065;46.942;7.432;2023-04-06T03:30:43;8.77;;;7.03;;
10050;SDS011;5065;46.942;7.432;2023-04-06T03:33:12;9.87;;;7.33;;
10050;SDS011;5065;46.942;7.432;2023-04-06T03:35:39;12.43;;;7.03;;
10050;SDS011;5065;46.942;7.432;2023-04-06T03:38:06;11.57;;;7.40;;
10050;SDS011;5065;46.942;7.432;2023-04-06T03:40:35;11.07;;;6.53;;
10050;SDS011;5065;46.942;7.432;2023-04-06T03:43:02;9.90;;;7.00;;
10050;SDS011;5065;46.942;7.432;2023-04-06T03:45:30;9.07;;;7.50;;
10050;SDS011;5065;46.942;7.432;2023-04-06T03:47:57;8.33;;;6.23;;
10050;SDS011;5065;46.942;7.432;2023-04-06T03:50:25;6.97;;;6.20;;
10050;SDS011;5065;46.942;7.432;2023-04-06T03:52:54;8.47;;;6.47;;
10050;SDS011;5065;46.942;7.432;2023-04-06T03:55:22;10.10;;;7.43;;
10050;SDS011;5065;46.942;7.432;2023-04-06T03:57:51;7.63;;;6.53;;
10050;SDS011;5065;46.942;7.432;2023-04-06T04:00:18;9.77;;;6.30;;
10050;SDS011;5065;46.942;7.432;2023-04-06T04:02:45;10.37;;;7.37;;
10050;SDS011;5065;46.942;7.432;2023-04-06T04:05:12;9.27;;;6.67;;
10050;SDS011;5065;46.942;7.432;2023-04-06T04:07:40;10.83;;;6.93;;
10050;SDS011;5065;46.942;7.432;2023-04-06T04:10:07;6.90;;;6.20;;
10050;SDS011;5065;46.942;7.432;2023-04-06T04:12:35;11.07;;;6.60;;
10050;SDS011;5065;46.942;7.432;2023-04-06T04:15:04;9.03;;;7.37;;
10050;SDS011;5065;46.942;7.432;2023-04-06T04:17:32;9.50;;;6.77;;
10050;SDS011;5065;46.942;7.432;2023-04-06T04:19:59;7.27;;;6.57;;
10050;SDS011;5065;46.942;7.432;2023-04-06T04:22:26;9.20;;;6.17;;
10050;SDS011;5065;46.942;7.432;2023-04-06T04:24:54;8.43;;;6.57;;
10050;SDS011;5065;46.942;7.432;2023-04-06T04:27:21;8.00;;;6.63;;
10050;SDS011;5065;46.942;7.432;2023-04-06T04:29:48;7.80;;;6.67;;
10050;SDS011;5065;46.942;7.432;2023-04-06T04:32:18;9.03;;;6.70;;
10050;SDS011;5065;46.942;7.432;2023-04-06T04:34:45;13.07;;;6.43;;
10050;SDS011;5065;46.942;7.432;2023-04-06T04:37:13;8.30;;;6.20;;
10050;SDS011;5065;46.942;7.432;2023-04-06T04:39:40;7.50;;;5.67;;
10050;SDS011;5065;46.942;7.432;2023-04-06T04:42:08;6.80;;;5.87;;
10050;SDS011;5065;46.942;7.432;2023-04-06T04:44:36;8.73;;;6.30;;
10050;SDS011;5065;46.942;7.432;2023-04-06T04:47:04;7.70;;;6.27;;
10050;SDS011;5065;46.942;7.432;2023-04-06T04:49:33;8.97;;;6.60;;
10050;SDS011;5065;46.942;7.432;2023-04-06T04:52:00;10.93;;;5.33;;
10050;SDS011;5065;46.942;7.432;2023-04-06T04:54:27;8.20;;;6.37;;
10050;SDS011;5065;46.942;7.432;2023-04-06T04:56:54;7.10;;;6.00;;
10050;SDS011;5065;46.942;7.432;2023-04-06T04:59:22;8.17;;;6.53;;
10050;SDS011;5065;46.942;7.432;2023-04-06T05:01:49;8.63;;;5.90;;
10050;SDS011;5065;46.942;7.432;2023-04-06T05:04:16;8.50;;;5.97;;
10050;SDS011;5065;46.942;7.432;2023-04-06T05:06:44;7.90;;;5.73;;
10050;SDS011;5065;46.942;7.432;2023-04-06T05:09:12;8.60;;;6.10;;
10050;SDS011;5065;46.942;7.432;2023-04-06T05:11:39;7.47;;;6.10;;
10050;SDS011;5065;46.942;7.432;2023-04-06T05:14:06;10.10;;;6.73;;
10050;SDS011;5065;46.942;7.432;2023-04-06T05:16:34;8.37;;;6.30;;
10050;SDS011;5065;46.942;7.432;2023-04-06T05:19:01;6.77;;;6.07;;
10050;SDS011;5065;46.942;7.432;2023-04-06T05:21:28;12.43;;;5.93;;
10050;SDS011;5065;46.942;7.432;2023-04-06T05:23:58;6.83;;;4.93;;
10050;SDS011;5065;46.942;7.432;2023-04-06T05:26:27;8.67;;;5.83;;
10050;SDS011;5065;46.942;7.432;2023-04-06T05:28:55;7.00;;;5.93;;
10050;SDS011;5065;46.942;7.432;2023-04-06T05:31:22;9.60;;;6.40;;
10050;SDS011;5065;46.942;7.432;2023-04-06T05:33:49;7.67;;;5.80;;
10050;SDS011;5065;46.942;7.432;2023-04-06T05:36:17;8.17;;;6.17;;
10050;SDS011;5065;46.942;7.432;2023-04-06T05:38:44;11.97;;;5.93;;
10050;SDS011;5065;46.942;7.432;2023-04-06T05:41:13;9.10;;;6.30;;
10050;SDS011;5065;46.942;7.432;2023-04-06T05:43:40;8.17;;;6.67;;
10050;SDS011;5065;46.942;7.432;2023-04-06T05:46:08;9.37;;;6.17;;
10050;SDS011;5065;46.942;7.432;2023-04-06T05:48:35;12.17;;;7.20;;
10050;SDS011;5065;46.942;7.432;2023-04-06T05:51:02;7.67;;;6.63;;
10050;SDS011;5065;46.942;7.432;2023-04-06T05:53:31;12.53;;;8.40;;
10050;SDS011;5065;46.942;7.432;2023-04-06T05:56:00;9.83;;;6.57;;
10050;SDS011;5065;46.942;7.432;2023-04-06T05:58:29;11.57;;;6.07;;
10050;SDS011;5065;46.942;7.432;2023-04-06T06:00:59;9.27;;;7.30;;
10050;SDS011;5065;46.942;7.432;2023-04-06T06:03:28;11.20;;;7.43;;
10050;SDS011;5065;46.942;7.432;2023-04-06T06:05:59;10.07;;;7.93;;
10050;SDS011;5065;46.942;7.432;2023-04-06T06:08:27;9.20;;;7.10;;
10050;SDS011;5065;46.942;7.432;2023-04-06T06:10:54;12.70;;;7.67;;
10050;SDS011;5065;46.942;7.432;2023-04-06T06:13:22;8.40;;;7.10;;
10050;SDS011;5065;46.942;7.432;2023-04-06T06:15:51;8.43;;;6.73;;
10050;SDS011;5065;46.942;7.432;2023-04-06T06:18:18;10.23;;;6.17;;
10050;SDS011;5065;46.942;7.432;2023-04-06T06:20:46;9.40;;;6.97;;
10050;SDS011;5065;46.942;7.432;2023-04-06T06:23:13;7.23;;;6.53;;
10050;SDS011;5065;46.942;7.432;2023-04-06T06:25:41;8.60;;;6.33;;
10050;SDS011;5065;46.942;7.432;2023-04-06T06:28:08;9.40;;;6.47;;
10050;SDS011;5065;46.942;7.432;2023-04-06T06:30:35;11.73;;;7.73;;
10050;SDS011;5065;46.942;7.432;2023-04-06T06:33:04;9.23;;;6.27;;
10050;SDS011;5065;46.942;7.432;2023-04-06T06:35:31;9.03;;;6.97;;
10050;SDS011;5065;46.942;7.432;2023-04-06T06:37:58;9.73;;;7.03;;
10050;SDS011;5065;46.942;7.432;2023-04-06T06:40:26;8.43;;;6.27;;
10050;SDS011;5065;46.942;7.432;2023-04-06T06:42:53;8.07;;;6.17;;
10050;SDS011;5065;46.942;7.432;2023-04-06T06:45:20;7.57;;;6.20;;
10050;SDS011;5065;46.942;7.432;2023-04-06T06:47:48;9.70;;;6.30;;
10050;SDS011;5065;46.942;7.432;2023-04-06T06:50:16;9.07;;;6.47;;
10050;SDS011;5065;46.942;7.432;2023-04-06T06:52:44;9.67;;;6.47;;
10050;SDS011;5065;46.942;7.432;2023-04-06T06:55:11;8.90;;;6.87;;
10050;SDS011;5065;46.942;7.432;2023-04-06T06:57:38;7.70;;;6.43;;
10050;SDS011;5065;46.942;7.432;2023-04-06T07:00:08;8.90;;;5.43;;
10050;SDS011;5065;46.942;7.432;2023-04-06T07:02:36;8.60;;;6.50;;
10050;SDS011;5065;46.942;7.432;2023-04-06T07:05:03;9.03;;;6.30;;
10050;SDS011;5065;46.942;7.432;2023-04-06T07:07:33;7.33;;;6.43;;
10050;SDS011;5065;46.942;7.432;2023-04-06T07:10:00;9.63;;;6.33;;
10050;SDS011;5065;46.942;7.432;2023-04-06T07:12:29;7.87;;;5.57;;
10050;SDS011;5065;46.942;7.432;2023-04-06T07:14:57;8.67;;;5.93;;
10050;SDS011;5065;46.942;7.432;2023-04-06T07:17:24;15.40;;;6.80;;
10050;SDS011;5065;46.942;7.432;2023-04-06T07:19:51;15.60;;;6.03;;
10050;SDS011;5065;46.942;7.432;2023-04-06T07:22:19;7.77;;;5.77;;
10050;SDS011;5065;46.942;7.432;2023-04-06T07:24:47;9.00;;;5.50;;
10050;SDS011;5065;46.942;7.432;2023-04-06T07:27:15;7.77;;;6.20;;
10050;SDS011;5065;46.942;7.432;2023-04-06T07:29:43;12.70;;;6.10;;
10050;SDS011;5065;46.942;7.432;2023-04-06T07:32:11;8.10;;;5.70;;
10050;SDS011;5065;46.942;7.432;2023-04-06T07:34:38;10.97;;;6.17;;
10050;SDS011;5065;46.942;7.432;2023-04-06T07:37:05;8.60;;;6.03;;
10050;SDS011;5065;46.942;7.432;2023-04-06T07:39:33;9.50;;;5.60;;
10050;SDS011;5065;46.942;7.432;2023-04-06T07:42:02;15.43;;;7.70;;
10050;SDS011;5065;46.942;7.432;2023-04-06T07:44:30;7.03;;;5.90;;
10050;SDS011;5065;46.942;7.432;2023-04-06T07:46:57;10.03;;;6.47;;
10050;SDS011;5065;46.942;7.432;2023-04-06T07:49:24;7.87;;;6.67;;
10050;SDS011;5065;46.942;7.432;2023-04-06T07:51:52;11.33;;;6.57;;
10050;SDS011;5065;46.942;7.432;2023-04-06T07:54:19;8.90;;;6.13;;
10050;SDS011;5065;46.942;7.432;2023-04-06T07:56:46;6.13;;;5.53;;
10050;SDS011;5065;46.942;7.432;2023-04-06T07:59:15;8.67;;;6.40;;
10050;SDS011;5065;46.942;7.432;2023-04-06T08:01:42;8.80;;;7.23;;
10050;SDS011;5065;46.942;7.432;2023-04-06T08:04:09;9.07;;;6.80;;
10050;SDS011;5065;46.942;7.432;2023-04-06T08:06:36;11.43;;;6.43;;
10050;SDS011;5065;46.942;7.432;2023-04-06T08:09:04;14.13;;;5.90;;
10050;SDS011;5065;46.942;7.432;2023-04-06T08:11:31;6.07;;;5.13;;
10050;SDS011;5065;46.942;7.432;2023-04-06T08:13:58;7.57;;;6.20;;
10050;SDS011;5065;46.942;7.432;2023-04-06T08:16:27;6.93;;;5.53;;
10050;SDS011;5065;46.942;7.432;2023-04-06T08:18:55;12.70;;;5.30;;
10050;SDS011;5065;46.942;7.432;2023-04-06T08:21:22;8.40;;;5.80;;
10050;SDS011;5065;46.942;7.432;2023-04-06T08:23:50;5.90;;;5.07;;
10050;SDS011;5065;46.942;7.432;2023-04-06T08:26:17;10.50;;;5.77;;
10050;SDS011;5065;46.942;7.432;2023-04-06T08:28:45;7.23;;;5.67;;
10050;SDS011;5065;46.942;7.432;2023-04-06T08:31:12;9.13;;;6.60;;
10050;SDS011;5065;46.942;7.432;2023-04-06T08:33:41;5.43;;;4.90;;
10050;SDS011;5065;46.942;7.432;2023-04-06T08:36:08;6.97;;;5.97;;
10050;SDS011;5065;46.942;7.432;2023-04-06T08:38:37;7.93;;;5.57;;
10050;SDS011;5065;46.942;7.432;2023-04-06T08:41:08;9.30;;;5.83;;
10050;SDS011;5065;46.942;7.432;2023-04-06T08:43:41;7.93;;;6.07;;
10050;SDS011;5065;46.942;7.432;2023-04-06T08:46:10;8.70;;;5.90;;
10050;SDS011;5065;46.942;7.432;2023-04-06T08:48:38;7.97;;;6.07;;
10050;SDS011;5065;46.942;7.432;2023-04-06T08:51:08;7.27;;;6.50;;
10050;SDS011;5065;46.942;7.432;2023-04-06T08:53:36;7.23;;;6.13;;
10050;SDS011;5065;46.942;7.432;2023-04-06T08:56:04;9.97;;;6.80;;
10050;SDS011;5065;46.942;7.432;2023-04-06T08:58:35;10.07;;;6.03;;
10050;SDS011;5065;46.942;7.432;2023-04-06T09:01:06;9.10;;;6.70;;
10050;SDS011;5065;46.942;7.432;2023-04-06T09:03:36;8.20;;;6.33;;
10050;SDS011;5065;46.942;7.432;2023-04-06T09:06:05;9.00;;;6.53;;
10050;SDS011;5065;46.942;7.432;2023-04-06T09:08:35;11.93;;;6.27;;
10050;SDS011;5065;46.942;7.432;2023-04-06T09:11:06;10.50;;;7.17;;
10050;SDS011;5065;46.942;7.432;2023-04-06T09:13:43;9.03;;;6.43;;
10050;SDS011;5065;46.942;7.432;2023-04-06T09:16:12;10.17;;;6.70;;
10050;SDS011;5065;46.942;7.432;2023-04-06T09:18:41;8.97;;;7.27;;
10050;SDS011;5065;46.942;7.432;2023-04-06T09:21:10;12.97;;;6.33;;
10050;SDS011;5065;46.942;7.432;2023-04-06T09:23:38;11.77;;;6.23;;
10050;SDS011;5065;46.942;7.432;2023-04-06T09:26:06;9.53;;;6.30;;
10050;SDS011;5065;46.942;7.432;2023-04-06T09:28:44;7.57;;;6.63;;
10050;SDS011;5065;46.942;7.432;2023-04-06T09:31:22;13.93;;;7.00;;
10050;SDS011;5065;46.942;7.432;2023-04-06T09:33:52;10.63;;;7.33;;
10050;SDS011;5065;46.942;7.432;2023-04-06T09:36:28;8.03;;;7.17;;
10050;SDS011;5065;46.942;7.432;2023-04-06T09:38:57;8.90;;;6.63;;
10050;SDS011;5065;46.942;7.432;2023-04-06T09:41:34;9.30;;;6.80;;
10050;SDS011;5065;46.942;7.432;2023-04-06T09:44:09;7.77;;;6.90;;
10050;SDS011;5065;46.942;7.432;2023-04-06T09:46:37;9.70;;;7.00;;
10050;SDS011;5065;46.942;7.432;2023-04-06T09:49:06;8.87;;;7.00;;
10050;SDS011;5065;46.942;7.432;2023-04-06T09:51:36;8.07;;;6.83;;
10050;SDS011;5065;46.942;7.432;2023-04-06T09:54:04;10.00;;;6.97;;
10050;SDS011;5065;46.942;7.432;2023-04-06T09:56:37;8.47;;;6.80;;
10050;SDS011;5065;46.942;7.432;2023-04-06T09:59:13;7.13;;;6.40;;
10050;SDS011;5065;46.942;7.432;2023-04-06T10:01:45;7.53;;;6.83;;
10050;SDS011;5065;46.942;7.432;2023-04-06T10:04:18;9.93;;;7.20;;
10050;SDS011;5065;46.942;7.432;2023-04-06T10:06:53;7.50;;;6.63;;
10050;SDS011;5065;46.942;7.432;2023-04-06T10:09:24;8.97;;;7.07;;
10050;SDS011;5065;46.942;7.432;2023-04-06T10:12:01;11.13;;;6.87;;
10050;SDS011;5065;46.942;7.432;2023-04-06T10:14:29;9.73;;;6.37;;
10050;SDS011;5065;46.942;7.432;2023-04-06T10:16:57;6.93;;;6.17;;
10050;SDS011;5065;46.942;7.432;2023-04-06T10:19:26;10.20;;;6.60;;
10050;SDS011;5065;46.942;7.432;2023-04-06T10:22:02;9.33;;;6.90;;
10050;SDS011;5065;46.942;7.432;2023-04-06T10:24:31;9.87;;;6.97;;
10050;SDS011;5065;46.942;7.432;2023-04-06T10:26:58;8.43;;;7.10;;
10050;SDS011;5065;46.942;7.432;2023-04-06T10:29:27;9.30;;;6.80;;
10050;SDS011;5065;46.942;7.432;2023-04-06T10:32:07;8.00;;;6.97;;
10050;SDS011;5065;46.942;7.432;2023-04-06T10:34:34;8.40;;;6.90;;
10050;SDS011;5065;46.942;7.432;2023-04-06T10:37:12;10.10;;;6.82;;
10050;SDS011;5065;46.942;7.432;2023-04-06T10:39:46;13.37;;;6.17;;
10050;SDS011;5065;46.942;7.432;2023-04-06T10:42:14;9.43;;;5.93;;
10050;SDS011;5065;46.942;7.432;2023-04-06T10:44:44;9.17;;;6.93;;
10050;SDS011;5065;46.942;7.432;2023-04-06T10:47:17;9.77;;;6.40;;
10050;SDS011;5065;46.942;7.432;2023-04-06T10:49:45;8.00;;;6.03;;
10050;SDS011;5065;46.942;7.432;2023-04-06T10:52:13;7.53;;;6.15;;
10050;SDS011;5065;46.942;7.432;2023-04-06T10:54:41;7.87;;;4.67;;
10050;SDS011;5065;46.942;7.432;2023-04-06T10:57:10;5.40;;;4.17;;
10050;SDS011;5065;46.942;7.432;2023-04-06T10:59:41;5.53;;;4.77;;
10050;SDS011;5065;46.942;7.432;2023-04-06T11:02:18;7.00;;;5.53;;
10050;SDS011;5065;46.942;7.432;2023-04-06T11:04:53;6.23;;;5.10;;
10050;SDS011;5065;46.942;7.432;2023-04-06T11:07:24;8.43;;;6.20;;
10050;SDS011;5065;46.942;7.432;2023-04-06T11:09:52;10.30;;;6.07;;
10050;SDS011;5065;46.942;7.432;2023-04-06T11:12:23;7.67;;;6.03;;
10050;SDS011;5065;46.942;7.432;2023-04-06T11:14:54;6.30;;;5.43;;
10050;SDS011;5065;46.942;7.432;2023-04-06T11:17:27;4.43;;;4.03;;
10050;SDS011;5065;46.942;7.432;2023-04-06T11:19:55;3.77;;;3.37;;
10050;SDS011;5065;46.942;7.432;2023-04-06T11:22:25;4.70;;;3.90;;
10050;SDS011;5065;46.942;7.432;2023-04-06T11:25:03;5.17;;;4.30;;
10050;SDS011;5065;46.942;7.432;2023-04-06T11:27:31;4.13;;;3.53;;
10050;SDS011;5065;46.942;7.432;2023-04-06T11:29:59;7.50;;;3.67;;
10050;SDS011;5065;46.942;7.432;2023-04-06T11:32:27;6.37;;;4.40;;
10050;SDS011;5065;46.942;7.432;2023-04-06T11:34:54;5.77;;;3.80;;
10050;SDS011;5065;46.942;7.432;2023-04-06T11:37:26;5.43;;;4.50;;
10050;SDS011;5065;46.942;7.432;2023-04-06T11:39:54;6.20;;;4.23;;
10050;SDS011;5065;46.942;7.432;2023-04-06T11:42:22;6.60;;;4.07;;
10050;SDS011;5065;46.942;7.432;2023-04-06T11:44:50;6.33;;;4.57;;
10050;SDS011;5065;46.942;7.432;2023-04-06T11:47:19;5.73;;;4.40;;
10050;SDS011;5065;46.942;7.432;2023-04-06T11:49:47;5.10;;;4.23;;
10050;SDS011;5065;46.942;7.432;2023-04-06T11:52:15;13.37;;;4.53;;
10050;SDS011;5065;46.942;7.432;2023-04-06T11:54:45;3.57;;;2.90;;
10050;SDS011;5065;46.942;7.432;2023-04-06T11:57:14;3.53;;;2.90;;
10050;SDS011;5065;46.942;7.432;2023-04-06T11:59:41;5.33;;;3.27;;
10050;SDS011;5065;46.942;7.432;2023-04-06T12:02:09;3.90;;;2.93;;
10050;SDS011;5065;46.942;7.432;2023-04-06T12:04:36;4.37;;;2.90;;
10050;SDS011;5065;46.942;7.432;2023-04-06T12:07:05;7.70;;;3.60;;
10050;SDS011;5065;46.942;7.432;2023-04-06T12:09:32;4.63;;;3.50;;
10050;SDS011;5065;46.942;7.432;2023-04-06T12:12:03;4.63;;;3.10;;
10050;SDS011;5065;46.942;7.432;2023-04-06T12:14:30;3.50;;;2.97;;
10050;SDS011;5065;46.942;7.432;2023-04-06T12:17:00;4.90;;;2.43;;
10050;SDS011;5065;46.942;7.432;2023-04-06T12:19:30;2.60;;;1.87;;
10050;SDS011;5065;46.942;7.432;2023-04-06T12:21:58;2.77;;;1.80;;
10050;SDS011;5065;46.942;7.432;2023-04-06T12:24:25;1.37;;;1.23;;
10050;SDS011;5065;46.942;7.432;2023-04-06T12:26:53;1.63;;;1.17;;
10050;SDS011;5065;46.942;7.432;2023-04-06T12:29:23;2.73;;;1.87;;
10050;SDS011;5065;46.942;7.432;2023-04-06T12:31:51;3.90;;;1.43;;
10050;SDS011;5065;46.942;7.432;2023-04-06T12:34:18;4.40;;;1.63;;
10050;SDS011;5065;46.942;7.432;2023-04-06T12:36:46;1.90;;;1.60;;
10050;SDS011;5065;46.942;7.432;2023-04-06T12:39:15;1.70;;;1.30;;
10050;SDS011;5065;46.942;7.432;2023-04-06T12:41:42;2.20;;;1.33;;
10050;SDS011;5065;46.942;7.432;2023-04-06T12:44:10;2.07;;;1.60;;
10050;SDS011;5065;46.942;7.432;2023-04-06T12:46:39;4.93;;;1.60;;
10050;SDS011;5065;46.942;7.432;2023-04-06T12:49:08;1.40;;;1.30;;
10050;SDS011;5065;46.942;7.432;2023-04-06T12:51:36;1.70;;;1.30;;
10050;SDS011;5065;46.942;7.432;2023-04-06T12:54:03;2.00;;;1.43;;
10050;SDS011;5065;46.942;7.432;2023-04-06T12:56:31;2.10;;;1.43;;
10050;SDS011;5065;46.942;7.432;2023-04-06T12:58:58;1.70;;;1.37;;
10050;SDS011;5065;46.942;7.432;2023-04-06T13:01:26;1.70;;;1.10;;
10050;SDS011;5065;46.942;7.432;2023-04-06T13:03:55;1.93;;;1.40;;
10050;SDS011;5065;46.942;7.432;2023-04-06T13:06:22;1.63;;;1.50;;
10050;SDS011;5065;46.942;7.432;2023-04-06T13:08:52;1.53;;;1.30;;
10050;SDS011;5065;46.942;7.432;2023-04-06T13:11:19;2.53;;;1.77;;
10050;SDS011;5065;46.942;7.432;2023-04-06T13:13:49;1.83;;;1.60;;
10050;SDS011;5065;46.942;7.432;2023-04-06T13:16:16;2.50;;;1.90;;
10050;SDS011;5065;46.942;7.432;2023-04-06T13:18:44;3.07;;;2.37;;
10050;SDS011;5065;46.942;7.432;2023-04-06T13:21:14;2.73;;;2.53;;
10050;SDS011;5065;46.942;7.432;2023-04-06T13:23:42;4.90;;;3.00;;
10050;SDS011;5065;46.942;7.432;2023-04-06T13:26:09;7.13;;;3.50;;
10050;SDS011;5065;46.942;7.432;2023-04-06T13:28:38;3.80;;;3.00;;
10050;SDS011;5065;46.942;7.432;2023-04-06T13:31:05;3.80;;;3.33;;
10050;SDS011;5065;46.942;7.432;2023-04-06T13:33:33;4.93;;;3.80;;
10050;SDS011;5065;46.942;7.432;2023-04-06T13:36:00;5.93;;;3.90;;
10050;SDS011;5065;46.942;7.432;2023-04-06T13:38:29;5.17;;;4.10;;
10050;SDS011;5065;46.942;7.432;2023-04-06T13:40:56;5.30;;;4.23;;
10050;SDS011;5065;46.942;7.432;2023-04-06T13:43:24;5.53;;;4.80;;
10050;SDS011;5065;46.942;7.432;2023-04-06T13:45:52;5.43;;;3.90;;
10050;SDS011;5065;46.942;7.432;2023-04-06T13:48:23;4.43;;;4.00;;
10050;SDS011;5065;46.942;7.432;2023-04-06T13:50:51;8.07;;;4.20;;
10050;SDS011;5065;46.942;7.432;2023-04-06T13:53:18;6.17;;;4.63;;
10050;SDS011;5065;46.942;7.432;2023-04-06T13:55:53;7.77;;;4.67;;
10050;SDS011;5065;46.942;7.432;2023-04-06T13:58:20;7.97;;;4.60;;
10050;SDS011;5065;46.942;7.432;2023-04-06T14:00:48;6.50;;;4.47;;
10050;SDS011;5065;46.942;7.432;2023-04-06T14:03:15;5.90;;;3.87;;
10050;SDS011;5065;46.942;7.432;2023-04-06T14:05:42;5.97;;;4.30;;
10050;SDS011;5065;46.942;7.432;2023-04-06T14:08:11;5.13;;;4.00;;
10050;SDS011;5065;46.942;7.432;2023-04-06T14:10:38;7.77;;;4.53;;
10050;SDS011;5065;46.942;7.432;2023-04-06T14:13:08;5.57;;;4.10;;
10050;SDS011;5065;46.942;7.432;2023-04-06T14:15:35;5.30;;;4.10;;
10050;SDS011;5065;46.942;7.432;2023-04-06T14:18:03;5.33;;;4.20;;
10050;SDS011;5065;46.942;7.432;2023-04-06T14:20:31;7.73;;;3.83;;
10050;SDS011;5065;46.942;7.432;2023-04-06T14:22:59;3.70;;;3.30;;
10050;SDS011;5065;46.942;7.432;2023-04-06T14:25:26;6.20;;;4.20;;
10050;SDS011;5065;46.942;7.432;2023-04-06T14:27:56;5.30;;;4.27;;
10050;SDS011;5065;46.942;7.432;2023-04-06T14:30:24;5.10;;;3.60;;
10050;SDS011;5065;46.942;7.432;2023-04-06T14:32:53;6.57;;;3.80;;
10050;SDS011;5065;46.942;7.432;2023-04-06T14:35:22;5.63;;;3.40;;
10050;SDS011;5065;46.942;7.432;2023-04-06T14:37:50;5.10;;;3.53;;
10050;SDS011;5065;46.942;7.432;2023-04-06T14:40:17;10.03;;;6.57;;
10050;SDS011;5065;46.942;7.432;2023-04-06T14:42:45;28.10;;;20.20;;
10050;SDS011;5065;46.942;7.432;2023-04-06T14:45:12;7.83;;;4.00;;
10050;SDS011;5065;46.942;7.432;2023-04-06T14:47:42;4.70;;;3.40;;
10050;SDS011;5065;46.942;7.432;2023-04-06T14:50:12;6.27;;;3.00;;
10050;SDS011;5065;46.942;7.432;2023-04-06T14:52:39;6.73;;;3.53;;
10050;SDS011;5065;46.942;7.432;2023-04-06T14:55:07;4.80;;;3.37;;
10050;SDS011;5065;46.942;7.432;2023-04-06T14:57:34;5.77;;;3.53;;
10050;SDS011;5065;46.942;7.432;2023-04-06T15:00:02;5.10;;;3.20;;
10050;SDS011;5065;46.942;7.432;2023-04-06T15:02:31;5.47;;;3.63;;
10050;SDS011;5065;46.942;7.432;2023-04-06T15:05:09;5.30;;;3.50;;